Аэропорт: Уральск. Уральск

ICAO: UARR

METAR:
2019/01/21 23:00
UARR 212300Z 19011MPS 0900 R22/1900N +SHSN BLSN OVC013CB M07/M07 Q1012 R22/720345 TEMPO 17010G15MPS 0500 +SHSN RMK QFE755/1007
METAR:
2015/07/31 21:21
TAF 
      AMD TAF 
      AMD UARR 312316Z 3121/0109 VRB02MPS CAVOK 
      TEMPO 0106/0109 18005MPS